createdAt,value
2019-01-20T00:01:07.194Z,77.08
2019-01-20T00:03:36.740Z,77.08
2019-01-20T00:06:06.311Z,77.11
2019-01-20T00:08:35.843Z,76.84
2019-01-20T00:11:05.743Z,76.91
2019-01-20T00:13:35.295Z,76.80
2019-01-20T00:16:05.260Z,76.71
2019-01-20T00:18:34.803Z,76.66
2019-01-20T00:21:04.422Z,76.24
2019-01-20T00:23:33.989Z,76.24
2019-01-20T00:26:03.634Z,76.42
2019-01-20T00:28:33.178Z,76.54
2019-01-20T00:31:02.731Z,76.63
2019-01-20T00:33:32.273Z,76.58
2019-01-20T00:36:01.826Z,76.44
2019-01-20T00:38:31.365Z,76.53
2019-01-20T00:41:00.924Z,76.72
2019-01-20T00:43:30.458Z,76.89
2019-01-20T00:46:00.030Z,77.00
2019-01-20T00:48:29.826Z,77.13
2019-01-20T00:50:59.393Z,77.25
2019-01-20T00:53:28.928Z,77.25
2019-01-20T00:55:58.510Z,77.30
2019-01-20T00:58:28.050Z,77.32
2019-01-20T01:00:57.595Z,77.31
2019-01-20T01:03:27.260Z,77.30
2019-01-20T01:05:56.826Z,77.36
2019-01-20T01:08:26.392Z,77.44
2019-01-20T01:10:55.947Z,77.35
2019-01-20T01:13:25.510Z,77.22
2019-01-20T01:15:55.294Z,77.19
2019-01-20T01:18:24.867Z,77.27
2019-01-20T01:20:54.414Z,77.34
2019-01-20T01:23:23.952Z,77.38
2019-01-20T01:25:53.504Z,77.50
2019-01-20T01:28:23.055Z,77.63
2019-01-20T01:30:52.608Z,77.61
2019-01-20T01:33:22.165Z,77.50
2019-01-20T01:35:51.723Z,77.49
2019-01-20T01:38:21.318Z,77.52
2019-01-20T01:40:50.859Z,77.46
2019-01-20T01:43:20.423Z,77.53
2019-01-20T01:45:50.934Z,77.62
2019-01-20T01:48:20.474Z,77.73
2019-01-20T01:50:50.060Z,77.77
2019-01-20T01:53:19.616Z,77.79
2019-01-20T01:55:50.388Z,77.88
2019-01-20T01:58:19.956Z,77.95
2019-01-20T02:00:49.476Z,78.05
2019-01-20T02:03:19.011Z,78.03
2019-01-20T02:05:48.588Z,78.05
2019-01-20T02:08:19.461Z,77.98
2019-01-20T02:10:50.495Z,77.77
2019-01-20T02:13:20.047Z,77.81
2019-01-20T02:15:51.189Z,77.81
2019-01-20T02:18:20.758Z,77.78
2019-01-20T02:20:50.332Z,77.87
2019-01-20T02:23:19.872Z,77.99
2019-01-20T02:25:51.058Z,78.01
2019-01-20T02:28:20.611Z,77.93
2019-01-20T02:30:50.159Z,77.99
2019-01-20T02:33:19.766Z,77.97
2019-01-20T02:35:50.525Z,77.98
2019-01-20T02:38:20.066Z,78.00
2019-01-20T02:40:49.596Z,78.09
2019-01-20T02:43:19.164Z,78.12
2019-01-20T02:45:49.138Z,78.15
2019-01-20T02:48:18.815Z,78.24
2019-01-20T02:50:48.374Z,78.33
2019-01-20T02:53:17.961Z,78.34
2019-01-20T02:55:47.521Z,78.33
2019-01-20T02:58:17.079Z,78.39
2019-01-20T03:00:46.627Z,78.23
2019-01-20T03:03:16.189Z,78.07
2019-01-20T03:05:45.787Z,78.18
2019-01-20T03:10:45.033Z,78.34
2019-01-20T03:13:14.561Z,78.37
2019-01-20T03:15:44.147Z,78.44
2019-01-20T03:18:13.685Z,78.47
2019-01-20T03:20:43.231Z,78.52
2019-01-20T03:23:14.993Z,78.56
2019-01-20T03:25:44.524Z,78.57
2019-01-20T03:28:14.061Z,78.58
2019-01-20T03:30:43.642Z,78.56
2019-01-20T03:33:13.194Z,78.52
2019-01-20T03:35:42.773Z,78.41
2019-01-20T03:38:12.407Z,78.35
2019-01-20T03:40:41.941Z,78.43
2019-01-20T03:43:11.540Z,78.46
2019-01-20T03:45:41.107Z,78.51
2019-01-20T03:48:10.643Z,78.13
2019-01-20T03:50:45.824Z,78.07
2019-01-20T03:53:15.425Z,78.30
2019-01-20T03:55:44.986Z,78.37
2019-01-20T03:58:14.547Z,78.27
2019-01-20T04:00:44.185Z,78.02
2019-01-20T04:03:13.755Z,78.19
2019-01-20T04:05:43.282Z,78.24
2019-01-20T04:08:13.156Z,78.26
2019-01-20T04:10:44.771Z,78.21
2019-01-20T04:13:14.817Z,78.17
2019-01-20T04:15:44.351Z,77.84
2019-01-20T04:18:13.909Z,77.69
2019-01-20T04:20:43.790Z,77.62
2019-01-20T04:23:13.345Z,77.53
2019-01-20T04:25:43.307Z,77.62
2019-01-20T04:28:12.894Z,77.76
2019-01-20T04:30:42.426Z,77.72
2019-01-20T04:33:12.008Z,77.64
2019-01-20T04:35:41.583Z,77.69
2019-01-20T04:38:11.121Z,77.82
2019-01-20T04:40:40.735Z,77.65
2019-01-20T04:43:10.308Z,77.59
2019-01-20T04:45:39.848Z,77.67
2019-01-20T04:48:09.433Z,77.61
2019-01-20T04:50:39.045Z,77.68
2019-01-20T04:53:08.750Z,77.90
2019-01-20T04:55:38.273Z,77.94
2019-01-20T04:58:07.917Z,78.00
2019-01-20T05:00:37.481Z,78.04
2019-01-20T05:03:07.044Z,77.97
2019-01-20T05:05:36.593Z,78.12
2019-01-20T05:08:06.230Z,78.34
2019-01-20T05:10:35.770Z,78.50
2019-01-20T05:13:05.328Z,78.63
2019-01-20T05:15:34.887Z,78.66
2019-01-20T05:18:04.818Z,78.65
2019-01-20T05:20:34.442Z,78.40
2019-01-20T05:23:06.969Z,78.37
2019-01-20T05:25:36.523Z,78.40
2019-01-20T05:28:06.080Z,78.38
2019-01-20T05:30:35.634Z,78.45
2019-01-20T05:33:05.356Z,78.47
2019-01-20T05:35:34.910Z,78.50
2019-01-20T05:38:04.474Z,78.53
2019-01-20T05:40:34.016Z,78.53
2019-01-20T05:43:03.563Z,78.52
2019-01-20T05:45:33.167Z,78.57
2019-01-20T05:48:02.700Z,78.36
2019-01-20T05:50:32.267Z,78.38
2019-01-20T05:53:01.816Z,78.41
2019-01-20T05:55:31.362Z,78.45
2019-01-20T05:58:00.896Z,78.38
2019-01-20T06:00:33.271Z,78.35
2019-01-20T06:03:03.090Z,78.25
2019-01-20T06:05:32.718Z,78.22
2019-01-20T06:08:02.547Z,78.25
2019-01-20T06:10:32.110Z,78.22
2019-01-20T06:13:01.699Z,77.94
2019-01-20T06:15:31.206Z,78.07
2019-01-20T06:18:00.783Z,78.18
2019-01-20T06:20:30.322Z,77.98
2019-01-20T06:22:59.894Z,77.88
2019-01-20T06:25:29.504Z,77.74
2019-01-20T06:27:59.078Z,77.69
2019-01-20T06:30:33.583Z,77.76
2019-01-20T06:33:03.150Z,77.83
2019-01-20T06:35:32.707Z,77.95
2019-01-20T06:38:03.976Z,78.02
2019-01-20T06:40:33.503Z,78.14
2019-01-20T06:43:03.136Z,78.24
2019-01-20T06:45:32.688Z,78.29
2019-01-20T06:48:02.641Z,78.06
2019-01-20T06:50:32.192Z,78.14
2019-01-20T06:53:02.391Z,78.24
2019-01-20T06:55:32.579Z,78.28
2019-01-20T06:58:02.131Z,78.25
2019-01-20T07:00:31.674Z,78.40
2019-01-20T07:03:01.228Z,78.26
2019-01-20T07:05:30.852Z,78.11
2019-01-20T07:08:00.411Z,77.98
2019-01-20T07:10:29.963Z,77.91
2019-01-20T07:13:08.804Z,77.89
2019-01-20T07:15:32.549Z,77.76
2019-01-20T07:20:31.832Z,77.70
2019-01-20T07:23:02.657Z,77.73
2019-01-20T07:25:32.399Z,77.70
2019-01-20T07:28:03.560Z,77.71
2019-01-20T07:30:33.573Z,77.66
2019-01-20T07:33:04.956Z,77.80
2019-01-20T07:35:34.506Z,77.89
2019-01-20T07:38:04.195Z,77.97
2019-01-20T07:40:33.850Z,78.02
2019-01-20T07:43:03.871Z,77.98
2019-01-20T07:45:37.380Z,78.07
2019-01-20T07:48:07.384Z,77.78
2019-01-20T07:50:36.974Z,77.81
2019-01-20T07:53:07.831Z,77.93
2019-01-20T07:55:37.432Z,77.91
2019-01-20T07:58:07.285Z,77.87
2019-01-20T08:00:36.872Z,77.76
2019-01-20T08:03:06.516Z,77.69
2019-01-20T08:05:36.048Z,77.77
2019-01-20T08:08:05.771Z,77.57
2019-01-20T08:10:35.324Z,77.49
2019-01-20T08:13:08.891Z,77.66
2019-01-20T08:15:39.020Z,77.70
2019-01-20T08:20:44.706Z,77.67
2019-01-20T08:23:16.368Z,77.55
2019-01-20T08:25:47.399Z,77.53
2019-01-20T08:28:19.307Z,77.26
2019-01-20T08:33:25.506Z,77.35
2019-01-20T08:35:55.217Z,77.53
2019-01-20T08:38:26.804Z,77.82
2019-01-20T08:40:58.029Z,77.85
2019-01-20T08:43:31.771Z,78.02
2019-01-20T08:46:06.270Z,78.19
2019-01-20T08:48:36.574Z,78.23
2019-01-20T08:51:06.837Z,78.26
2019-01-20T08:53:36.374Z,78.21
2019-01-20T08:56:07.103Z,78.17
2019-01-20T08:58:36.736Z,78.10
2019-01-20T09:01:07.555Z,78.00
2019-01-20T09:03:37.155Z,77.97
2019-01-20T09:06:08.533Z,77.83
2019-01-20T09:08:43.769Z,77.61
2019-01-20T09:11:13.745Z,77.52
2019-01-20T09:13:43.291Z,77.31
2019-01-20T09:16:14.375Z,77.19
2019-01-20T09:18:45.668Z,77.18
2019-01-20T09:21:15.219Z,76.48
2019-01-20T09:23:46.593Z,76.09
2019-01-20T09:26:16.136Z,76.07
2019-01-20T09:28:47.421Z,76.08
2019-01-20T09:31:17.006Z,75.77
2019-01-20T09:33:46.554Z,75.04
2019-01-20T09:36:19.193Z,74.78
2019-01-20T09:38:50.262Z,74.73
2019-01-20T09:41:19.833Z,74.41
2019-01-20T09:43:49.386Z,74.30
2019-01-20T09:46:18.947Z,74.34
2019-01-20T09:48:48.677Z,74.14
2019-01-20T09:51:18.492Z,72.79
2019-01-20T09:53:48.788Z,72.80
2019-01-20T09:56:18.736Z,73.13
2019-01-20T09:58:48.480Z,72.41
2019-01-20T10:01:18.046Z,72.35
2019-01-20T10:03:47.946Z,71.70
2019-01-20T10:06:17.823Z,71.10
2019-01-20T10:08:47.379Z,71.43
2019-01-20T10:11:17.399Z,71.27
2019-01-20T10:13:54.766Z,71.62
2019-01-20T10:16:22.812Z,71.42
2019-01-20T10:18:55.713Z,71.34
2019-01-20T10:21:25.420Z,71.01
2019-01-20T10:23:56.997Z,70.91
2019-01-20T10:26:27.225Z,70.39
2019-01-20T10:28:58.711Z,69.76
2019-01-20T10:31:28.465Z,69.67
2019-01-20T10:34:01.545Z,69.99
2019-01-20T10:36:31.147Z,69.66
2019-01-20T10:39:00.710Z,68.77
2019-01-20T10:41:30.304Z,68.75
2019-01-20T10:44:03.417Z,68.74
2019-01-20T10:46:33.230Z,68.67
2019-01-20T10:49:02.790Z,68.63
2019-01-20T10:51:33.671Z,68.77
2019-01-20T10:54:07.257Z,68.26
2019-01-20T10:56:36.856Z,68.10
2019-01-20T10:59:06.579Z,67.90
2019-01-20T11:01:36.282Z,67.18
2019-01-20T11:04:05.963Z,66.55
2019-01-20T11:06:35.653Z,66.73
2019-01-20T11:09:06.830Z,66.54
2019-01-20T11:11:36.367Z,66.21
2019-01-20T11:14:09.593Z,65.07
2019-01-20T11:16:39.309Z,65.13
2019-01-20T11:19:08.840Z,65.06
2019-01-20T11:21:39.629Z,64.34
2019-01-20T11:24:09.222Z,64.86
2019-01-20T11:26:39.363Z,64.65
2019-01-20T11:29:08.904Z,64.56
2019-01-20T11:31:38.519Z,64.16
2019-01-20T11:34:08.111Z,63.23
2019-01-20T11:36:42.270Z,62.78
2019-01-20T11:39:10.217Z,62.64
2019-01-20T11:41:39.773Z,62.25
2019-01-20T11:44:16.816Z,62.14
2019-01-20T11:46:42.561Z,62.50
2019-01-20T11:49:12.131Z,61.93
2019-01-20T11:51:42.097Z,61.47
2019-01-20T11:54:11.625Z,60.74
2019-01-20T11:56:41.170Z,60.50
2019-01-20T11:59:11.130Z,60.58
2019-01-20T12:01:44.922Z,59.73
2019-01-20T12:04:16.191Z,59.56
2019-01-20T12:06:46.034Z,59.32
2019-01-20T12:09:16.066Z,59.96
2019-01-20T12:11:48.141Z,60.05
2019-01-20T12:14:23.984Z,60.02
2019-01-20T12:16:50.789Z,59.88
2019-01-20T12:19:20.342Z,59.67
2019-01-20T12:21:51.127Z,59.53
2019-01-20T12:24:21.555Z,59.73
2019-01-20T12:26:51.242Z,59.20
2019-01-20T12:29:20.780Z,59.28
2019-01-20T12:31:51.007Z,59.35
2019-01-20T12:34:20.562Z,58.85
2019-01-20T12:36:50.171Z,57.25
2019-01-20T12:39:19.909Z,58.05
2019-01-20T12:41:49.476Z,57.94
2019-01-20T12:44:19.020Z,58.14
2019-01-20T12:46:48.591Z,58.05
2019-01-20T12:49:18.138Z,58.65
2019-01-20T12:51:47.714Z,58.92
2019-01-20T12:54:20.606Z,58.45
2019-01-20T12:56:50.292Z,59.02
2019-01-20T12:59:19.780Z,58.20
2019-01-20T13:01:51.033Z,57.29
2019-01-20T13:04:21.138Z,56.54
2019-01-20T13:06:50.711Z,56.15
2019-01-20T13:09:20.286Z,56.01
2019-01-20T13:11:49.897Z,56.35
2019-01-20T13:14:19.448Z,56.52
2019-01-20T13:16:49.072Z,56.27
2019-01-20T13:19:19.479Z,56.74
2019-01-20T13:21:49.603Z,56.93
2019-01-20T13:24:22.056Z,56.19
2019-01-20T13:26:51.601Z,55.78
2019-01-20T13:29:21.218Z,56.75
2019-01-20T13:31:51.368Z,56.70
2019-01-20T13:34:24.435Z,57.02
2019-01-20T13:36:54.664Z,57.10
2019-01-20T13:39:24.366Z,57.27
2019-01-20T13:41:53.896Z,57.46
2019-01-20T13:44:23.692Z,56.54
2019-01-20T13:46:53.954Z,56.57
2019-01-20T13:49:24.678Z,57.09
2019-01-20T13:51:55.847Z,57.50
2019-01-20T13:54:27.033Z,57.16
2019-01-20T13:56:57.104Z,57.06
2019-01-20T13:59:30.653Z,57.16
2019-01-20T14:02:00.649Z,57.66
2019-01-20T14:04:31.190Z,58.12
2019-01-20T14:07:02.393Z,58.27
2019-01-20T14:09:33.531Z,58.52
2019-01-20T14:12:03.624Z,58.80
2019-01-20T14:14:33.689Z,59.24
2019-01-20T14:17:04.543Z,59.19
2019-01-20T14:19:34.235Z,58.92
2019-01-20T14:22:04.415Z,58.24
2019-01-20T14:24:34.465Z,58.18
2019-01-20T14:27:04.859Z,58.63
2019-01-20T14:29:36.169Z,58.70
2019-01-20T14:32:05.917Z,58.90
2019-01-20T14:34:35.965Z,59.35
2019-01-20T14:37:06.034Z,59.27
2019-01-20T14:39:35.710Z,58.66
2019-01-20T14:42:05.303Z,58.48
2019-01-20T14:44:35.381Z,58.36
2019-01-20T14:47:05.462Z,58.52
2019-01-20T14:49:35.526Z,58.54
2019-01-20T14:52:07.014Z,58.80
2019-01-20T14:54:41.252Z,58.89
2019-01-20T14:57:11.293Z,59.36
2019-01-20T14:59:41.331Z,59.38
2019-01-20T15:02:11.364Z,59.33
2019-01-20T15:04:41.129Z,59.54
2019-01-20T15:07:14.506Z,59.53
2019-01-20T15:09:44.577Z,59.40
2019-01-20T15:12:14.431Z,59.27
2019-01-20T15:14:44.196Z,59.17
2019-01-20T15:17:14.836Z,59.28
2019-01-20T15:19:45.294Z,59.55
2019-01-20T15:22:15.519Z,59.47
2019-01-20T15:24:47.686Z,59.45
2019-01-20T15:27:18.164Z,59.50
2019-01-20T15:29:48.133Z,59.83
2019-01-20T15:32:21.916Z,59.94
2019-01-20T15:34:53.764Z,60.24
2019-01-20T15:37:23.699Z,60.49
2019-01-20T15:39:53.706Z,60.66
2019-01-20T15:42:23.695Z,60.97
2019-01-20T15:44:53.771Z,61.09
2019-01-20T15:47:28.913Z,61.28
2019-01-20T15:49:58.924Z,61.43
2019-01-20T15:52:29.490Z,61.63
2019-01-20T15:55:00.795Z,61.88
2019-01-20T15:57:32.280Z,62.22
2019-01-20T16:00:01.962Z,62.48
2019-01-20T16:02:31.979Z,62.73
2019-01-20T16:05:02.489Z,62.92
2019-01-20T16:07:32.487Z,63.12
2019-01-20T16:10:02.607Z,63.42
2019-01-20T16:12:32.669Z,63.65
2019-01-20T16:15:03.086Z,63.83
2019-01-20T16:17:33.203Z,63.96
2019-01-20T16:20:07.527Z,64.09
2019-01-20T16:22:37.567Z,63.87
2019-01-20T16:25:23.401Z,64.05
2019-01-20T16:27:54.896Z,64.44
2019-01-20T16:30:28.961Z,64.77
2019-01-20T16:33:00.552Z,65.02
2019-01-20T16:35:30.604Z,65.23
2019-01-20T16:38:02.504Z,65.33
2019-01-20T16:40:32.606Z,65.46
2019-01-20T16:43:02.887Z,65.73
2019-01-20T16:45:42.570Z,65.80
2019-01-20T16:48:14.088Z,66.05
2019-01-20T16:50:45.909Z,66.29
2019-01-20T16:53:15.948Z,66.41
2019-01-20T16:55:45.919Z,66.48
2019-01-20T16:58:15.976Z,66.48
2019-01-20T17:00:46.175Z,66.58
2019-01-20T17:03:15.746Z,66.78
2019-01-20T17:05:45.857Z,67.05
2019-01-20T17:08:16.263Z,67.32
2019-01-20T17:10:46.137Z,67.60
2019-01-20T17:13:18.117Z,67.81
2019-01-20T17:15:48.214Z,68.01
2019-01-20T17:18:21.822Z,68.23
2019-01-20T17:20:51.931Z,68.58
2019-01-20T17:23:22.047Z,68.75
2019-01-20T17:25:52.092Z,68.93
2019-01-20T17:28:22.271Z,69.03
2019-01-20T17:30:52.755Z,69.06
2019-01-20T17:33:25.216Z,69.04
2019-01-20T17:35:55.313Z,69.22
2019-01-20T17:38:25.552Z,69.24
2019-01-20T17:40:55.530Z,69.36
2019-01-20T17:43:25.758Z,69.43
2019-01-20T17:45:57.849Z,69.59
2019-01-20T17:48:29.543Z,69.79
2019-01-20T17:50:59.654Z,70.01
2019-01-20T17:53:29.710Z,70.10
2019-01-20T17:56:00.989Z,70.16
2019-01-20T17:58:30.786Z,70.38
2019-01-20T18:01:01.938Z,70.54
2019-01-20T18:03:32.450Z,70.62
2019-01-20T18:06:02.668Z,70.66
2019-01-20T18:08:32.895Z,70.87
2019-01-20T18:11:03.078Z,71.21
2019-01-20T18:13:33.182Z,71.36
2019-01-20T18:16:05.084Z,71.42
2019-01-20T18:18:35.169Z,71.41
2019-01-20T18:21:05.362Z,71.40
2019-01-20T18:23:35.626Z,71.37
2019-01-20T18:26:06.718Z,71.34
2019-01-20T18:28:38.531Z,71.48
2019-01-20T18:31:09.123Z,71.63
2019-01-20T18:33:39.167Z,71.65
2019-01-20T18:36:09.669Z,71.60
2019-01-20T18:38:39.532Z,71.68
2019-01-20T18:41:09.094Z,71.79
2019-01-20T18:43:39.261Z,71.99
2019-01-20T18:46:09.089Z,72.11
2019-01-20T18:48:39.214Z,71.96
2019-01-20T18:51:09.420Z,72.16
2019-01-20T18:53:39.497Z,72.33
2019-01-20T18:56:09.066Z,72.37
2019-01-20T18:58:38.857Z,72.32
2019-01-20T19:01:09.070Z,72.35
2019-01-20T19:03:39.230Z,72.29
2019-01-20T19:06:09.273Z,72.38
2019-01-20T19:08:39.697Z,72.40
2019-01-20T19:11:11.426Z,72.42
2019-01-20T19:13:42.618Z,72.56
2019-01-20T19:16:13.202Z,72.60
2019-01-20T19:18:44.635Z,72.74
2019-01-20T19:21:18.020Z,72.80
2019-01-20T19:23:47.564Z,72.80
2019-01-20T19:26:17.629Z,72.83
2019-01-20T19:28:49.832Z,72.81
2019-01-20T19:31:20.049Z,72.89
2019-01-20T19:33:50.094Z,72.97
2019-01-20T19:36:19.903Z,73.02
2019-01-20T19:38:50.122Z,73.04
2019-01-20T19:41:20.904Z,73.06
2019-01-20T19:43:52.332Z,72.95
2019-01-20T19:46:24.958Z,72.77
2019-01-20T19:48:54.827Z,72.79
2019-01-20T19:51:25.013Z,72.93
2019-01-20T19:53:55.058Z,73.01
2019-01-20T19:56:28.061Z,73.14
2019-01-20T19:58:57.974Z,73.37
2019-01-20T20:01:30.882Z,73.58
2019-01-20T20:04:00.508Z,73.74
2019-01-20T20:06:30.162Z,73.81
2019-01-20T20:09:00.153Z,73.80
2019-01-20T20:11:29.764Z,73.75
2019-01-20T20:13:59.374Z,73.77
2019-01-20T20:16:31.178Z,73.82
2019-01-20T20:19:03.286Z,73.84
2019-01-20T20:21:35.020Z,73.85
2019-01-20T20:24:07.097Z,74.03
2019-01-20T20:26:37.313Z,74.14
2019-01-20T20:29:08.288Z,74.26
2019-01-20T20:31:37.961Z,74.42
2019-01-20T20:34:07.982Z,74.55
2019-01-20T20:36:39.229Z,74.64
2019-01-20T20:39:10.130Z,74.60
2019-01-20T20:41:39.729Z,74.55
2019-01-20T20:44:09.419Z,74.54
2019-01-20T20:46:39.838Z,74.59
2019-01-20T20:49:09.407Z,74.72
2019-01-20T20:51:39.223Z,74.85
2019-01-20T20:54:11.521Z,75.02
2019-01-20T20:56:42.115Z,75.01
2019-01-20T20:59:12.568Z,74.99
2019-01-20T21:01:42.127Z,74.94
2019-01-20T21:04:15.985Z,75.01
2019-01-20T21:06:48.760Z,75.09
2019-01-20T21:09:19.302Z,75.10
2019-01-20T21:11:49.214Z,75.07
2019-01-20T21:14:18.838Z,75.11
2019-01-20T21:16:48.420Z,75.25
2019-01-20T21:19:18.003Z,75.37
2019-01-20T21:21:47.527Z,75.51
2019-01-20T21:24:20.534Z,75.56
2019-01-20T21:26:50.748Z,75.77
2019-01-20T21:29:20.340Z,75.94
2019-01-20T21:31:49.961Z,75.86
2019-01-20T21:34:19.575Z,75.89
2019-01-20T21:36:50.042Z,75.91
2019-01-20T21:39:19.855Z,75.87
2019-01-20T21:41:50.091Z,75.87
2019-01-20T21:44:19.956Z,75.95
2019-01-20T21:46:51.224Z,76.01
2019-01-20T21:49:22.275Z,76.08
2019-01-20T21:51:51.959Z,76.19
2019-01-20T21:54:23.186Z,76.22
2019-01-20T21:56:53.606Z,76.28
2019-01-20T21:59:24.686Z,76.35
2019-01-20T22:01:56.491Z,76.36
2019-01-20T22:04:26.044Z,76.46
2019-01-20T22:06:56.538Z,76.54
2019-01-20T22:09:26.092Z,76.61
2019-01-20T22:11:55.642Z,76.64
2019-01-20T22:14:25.240Z,76.64
2019-01-20T22:16:54.800Z,76.63
2019-01-20T22:19:24.405Z,76.61
2019-01-20T22:21:53.979Z,76.68
2019-01-20T22:24:23.529Z,76.71
2019-01-20T22:26:53.135Z,76.79
2019-01-20T22:29:22.702Z,76.85
2019-01-20T22:31:52.290Z,76.91
2019-01-20T22:34:21.857Z,76.99
2019-01-20T22:36:51.424Z,77.09
2019-01-20T22:39:20.964Z,77.12
2019-01-20T22:41:50.579Z,77.08
2019-01-20T22:44:20.175Z,77.09
2019-01-20T22:46:50.544Z,76.73
2019-01-20T22:49:20.422Z,76.72
2019-01-20T22:51:50.839Z,76.85
2019-01-20T22:54:20.385Z,76.95
2019-01-20T22:56:49.982Z,76.95
2019-01-20T22:59:19.559Z,76.92
2019-01-20T23:01:49.075Z,76.92
2019-01-20T23:04:18.668Z,76.95
2019-01-20T23:06:50.044Z,76.96
2019-01-20T23:09:21.535Z,76.87
2019-01-20T23:11:51.094Z,76.93
2019-01-20T23:14:20.644Z,76.97
2019-01-20T23:16:50.609Z,77.00
2019-01-20T23:19:20.236Z,77.07
2019-01-20T23:21:49.909Z,77.17
2019-01-20T23:24:19.454Z,77.16
2019-01-20T23:26:49.065Z,77.09
2019-01-20T23:29:18.609Z,77.09
2019-01-20T23:31:48.175Z,77.15
2019-01-20T23:34:17.723Z,77.17
2019-01-20T23:36:47.273Z,77.26
2019-01-20T23:39:16.897Z,77.38
2019-01-20T23:41:46.556Z,77.49
2019-01-20T23:44:16.107Z,77.56
2019-01-20T23:46:45.664Z,77.67
2019-01-20T23:49:15.259Z,77.54
2019-01-20T23:51:44.801Z,77.56
2019-01-20T23:54:14.334Z,77.48
2019-01-20T23:56:43.966Z,77.44
2019-01-20T23:59:13.472Z,77.37
